Time;durP1;ratioP1;P1;durP2;ratioP2;P2;SDS_P1;SDS_P2;PMS_P1;PMS_P2;Temp;Humidity;BMP_temperature;BMP_pressure;BME280_temperature;BME280_humidity;BME280_pressure;Samples;Min_cycle;Max_cycle;Signal;HPM_P1;HPM_P2
2021/04/11 00:01:00;;;;;;;7.95;4.38;;;2.80;99.90;;;;;;4957230;29;20038;-94
2021/04/11 00:03:28;;;;;;;14.57;4.78;;;2.80;99.90;;;;;;4958630;29;20047;-94
2021/04/11 00:05:54;;;;;;;10.73;4.03;;;2.70;99.90;;;;;;4962624;29;20027;-93
2021/04/11 00:08:21;;;;;;;5.57;3.88;;;2.70;99.90;;;;;;4959727;29;20095;-94
2021/04/11 00:10:50;;;;;;;7.45;3.70;;;2.60;99.90;;;;;;4958561;29;20019;-93
2021/04/11 00:13:25;;;;;;;5.38;3.38;;;2.60;99.90;;;;;;4956089;29;20489;-95
2021/04/11 00:15:51;;;;;;;7.10;3.53;;;2.60;99.90;;;;;;4956423;29;20023;-93
2021/04/11 00:18:17;;;;;;;6.18;3.15;;;2.50;99.90;;;;;;4956230;29;20019;-93
2021/04/11 00:20:43;;;;;;;5.05;3.05;;;2.40;99.90;;;;;;4954880;29;20059;-94
2021/04/11 00:23:10;;;;;;;5.72;2.97;;;2.40;99.90;;;;;;4954922;29;20497;-93
2021/04/11 00:25:39;;;;;;;7.53;3.28;;;2.40;99.90;;;;;;4954809;29;20374;-94
2021/04/11 00:28:07;;;;;;;6.97;3.55;;;2.40;99.90;;;;;;4952211;29;20168;-93
2021/04/11 00:30:33;;;;;;;7.25;3.40;;;2.30;99.90;;;;;;4954445;29;20477;-96
2021/04/11 00:33:01;;;;;;;5.10;3.28;;;2.30;99.90;;;;;;4954043;29;20027;-93
2021/04/11 00:35:28;;;;;;;7.28;3.72;;;2.30;99.90;;;;;;4953863;29;20090;-93
2021/04/11 00:37:54;;;;;;;6.82;3.25;;;2.30;99.90;;;;;;4953792;29;20086;-93
2021/04/11 00:40:38;;;;;;;6.22;3.88;;;2.30;99.90;;;;;;4953995;29;20035;-94
2021/04/11 00:43:12;;;;;;;5.18;3.70;;;2.30;99.90;;;;;;4954656;29;20024;-95
2021/04/11 00:46:11;;;;;;;5.72;3.40;;;2.30;99.90;;;;;;4954096;29;20035;-92
2021/04/11 00:48:37;;;;;;;9.38;3.45;;;2.30;99.90;;;;;;4955633;29;20027;-95
2021/04/11 00:51:12;;;;;;;7.20;3.72;;;2.30;99.90;;;;;;4955860;28;20027;-94
2021/04/11 00:53:38;;;;;;;6.40;3.38;;;2.30;99.90;;;;;;4953819;29;20027;-96
2021/04/11 00:56:05;;;;;;;8.50;3.70;;;2.30;99.90;;;;;;4951837;28;20039;-94
2021/04/11 00:58:32;;;;;;;9.05;4.05;;;2.30;99.90;;;;;;4954187;29;20016;-94
2021/04/11 01:00:58;;;;;;;9.93;3.72;;;2.30;99.90;;;;;;4951912;29;20031;-94
2021/04/11 01:03:28;;;;;;;7.00;3.45;;;2.30;99.90;;;;;;4953485;29;20083;-95
2021/04/11 01:05:55;;;;;;;6.43;3.67;;;2.30;99.90;;;;;;4954892;29;20482;-95
2021/04/11 01:08:24;;;;;;;8.43;3.20;;;2.30;99.90;;;;;;4954067;29;20031;-94
2021/04/11 01:10:53;;;;;;;6.85;3.50;;;2.30;99.90;;;;;;4955695;29;20035;-93
2021/04/11 01:13:21;;;;;;;9.88;3.00;;;2.30;99.90;;;;;;4955492;29;20063;-94
2021/04/11 01:15:47;;;;;;;5.40;3.00;;;2.30;99.90;;;;;;4952011;29;20043;-95
2021/04/11 01:18:13;;;;;;;5.28;3.30;;;2.30;99.90;;;;;;4955086;28;20027;-94
2021/04/11 01:20:39;;;;;;;5.60;3.03;;;2.30;99.90;;;;;;4956579;29;20043;-93
2021/04/11 01:23:11;;;;;;;6.95;3.58;;;2.40;99.90;;;;;;4954095;29;20024;-95
2021/04/11 01:25:38;;;;;;;4.40;2.88;;;2.30;99.90;;;;;;4956279;29;20035;-95
2021/04/11 01:28:35;;;;;;;6.30;3.20;;;2.30;99.90;;;;;;4955972;29;20030;-94
2021/04/11 01:31:05;;;;;;;7.20;2.97;;;2.40;99.90;;;;;;4955949;29;20038;-95
2021/04/11 01:33:34;;;;;;;9.15;4.38;;;2.40;99.90;;;;;;4956361;29;20023;-94
2021/04/11 01:36:01;;;;;;;6.97;2.70;;;2.40;99.90;;;;;;4956209;29;20481;-93
2021/04/11 01:38:27;;;;;;;6.32;2.90;;;2.40;99.90;;;;;;4956442;29;20019;-94
2021/04/11 01:41:16;;;;;;;6.32;2.95;;;2.40;99.90;;;;;;4956623;29;20035;-94
2021/04/11 01:43:42;;;;;;;3.72;2.63;;;2.40;99.90;;;;;;4955758;29;20090;-93
2021/04/11 01:46:10;;;;;;;7.25;2.92;;;2.40;99.90;;;;;;4956371;29;20027;-94
2021/04/11 01:48:37;;;;;;;6.03;2.40;;;2.40;99.90;;;;;;4956622;29;20485;-93
2021/04/11 01:51:07;;;;;;;9.13;3.20;;;2.40;99.90;;;;;;4957142;29;20028;-94
2021/04/11 01:53:34;;;;;;;7.82;3.78;;;2.50;99.90;;;;;;4956405;29;20019;-94
2021/04/11 01:55:59;;;;;;;7.53;3.35;;;2.40;99.90;;;;;;4956078;29;20114;-95
